Terminal Aerodrome Forecast
Issued by NWS

Home | Current Version | Previous Version | Text Only | Print | Product List | Glossary Off
Versions: 1 2 3 4 5 6 7 8 9 10 11 12 13 14 15 16 17

000
FTUS43 KIWX 300934 AAA
TAFSBN
TAF AMD
KSBN 300934Z 3010/0106 VRB03KT 6SM BR VCSH BKN008
      TEMPO 3010/3012 2SM BR OVC003
     FM301200 22006KT P6SM VCSH BKN025
     FM301900 31010KT P6SM SCT020 BKN040
     FM010100 32005KT P6SM BKN250=

USA.gov is the U.S. government's official web portal to all federal, state and local government web resources and services.